createdAt,value
2023-05-09T04:03:52.062Z,7.91
2023-05-09T04:07:55.739Z,7.84
2023-05-09T04:11:58.316Z,7.90
2023-05-09T04:16:01.571Z,7.95
2023-05-09T04:20:09.130Z,8.06
2023-05-09T04:24:11.754Z,7.94
2023-05-09T04:28:18.371Z,7.99
2023-05-09T04:32:23.157Z,8.13
2023-05-09T04:36:28.909Z,8.32
2023-05-09T04:40:34.172Z,8.62
2023-05-09T04:44:36.902Z,8.70
2023-05-09T04:48:39.853Z,8.78
2023-05-09T04:52:43.724Z,9.10
2023-05-09T05:00:49.959Z,9.49
2023-05-09T05:05:03.024Z,9.75
2023-05-09T05:09:16.454Z,10.01
2023-05-09T05:13:21.410Z,10.19
2023-05-09T05:17:29.381Z,10.37
2023-05-09T05:21:34.054Z,10.55
2023-05-09T05:25:38.060Z,10.72
2023-05-09T05:29:41.179Z,10.72
2023-05-09T05:33:43.814Z,10.84
2023-05-09T05:37:48.963Z,11.00
2023-05-09T05:41:53.446Z,11.28
2023-05-09T05:45:56.274Z,11.65
2023-05-09T05:50:00.333Z,12.09
2023-05-09T05:54:03.188Z,12.41
2023-05-09T05:58:07.452Z,12.59
2023-05-09T06:02:11.152Z,12.77
2023-05-09T06:06:13.821Z,12.96
2023-05-09T06:10:17.117Z,13.09
2023-05-09T06:14:22.399Z,13.37
2023-05-09T06:18:25.300Z,13.66
2023-05-09T06:22:27.885Z,13.90
2023-05-09T06:26:30.490Z,14.15
2023-05-09T06:30:34.371Z,14.40
2023-05-09T06:34:37.921Z,14.70
2023-05-09T06:38:40.411Z,14.77
2023-05-09T06:42:42.921Z,14.95
2023-05-09T06:46:47.164Z,15.12
2023-05-09T06:50:49.768Z,15.37
2023-05-09T06:54:53.243Z,15.53
2023-05-09T06:58:55.859Z,15.58
2023-05-09T07:02:59.736Z,15.68
2023-05-09T07:07:02.357Z,15.97
2023-05-09T07:11:05.188Z,16.19
2023-05-09T07:15:09.183Z,16.55
2023-05-09T07:19:13.093Z,16.99
2023-05-09T07:23:15.811Z,17.26
2023-05-09T07:27:18.347Z,17.40
2023-05-09T07:31:20.942Z,17.50
2023-05-09T07:35:24.915Z,17.57
2023-05-09T07:39:27.606Z,17.73
2023-05-09T07:43:30.149Z,17.87
2023-05-09T07:47:32.795Z,17.97
2023-05-09T07:51:36.661Z,18.20
2023-05-09T07:55:39.187Z,18.37
2023-05-09T07:59:42.300Z,18.47
2023-05-09T08:03:44.854Z,18.68
2023-05-09T08:07:48.784Z,18.79
2023-05-09T08:11:51.356Z,18.77
2023-05-09T08:15:53.943Z,18.90
2023-05-09T08:19:56.501Z,19.08
2023-05-09T08:24:01.730Z,18.92
2023-05-09T08:28:04.493Z,18.90
2023-05-09T08:32:07.508Z,18.77
2023-05-09T08:36:10.146Z,18.87
2023-05-09T08:40:15.058Z,18.86
2023-05-09T08:44:17.796Z,19.00
2023-05-09T08:48:23.538Z,19.12
2023-05-09T08:52:26.131Z,19.38
2023-05-09T08:56:31.269Z,19.43
2023-05-09T09:00:34.745Z,19.62
2023-05-09T09:04:37.278Z,19.59
2023-05-09T09:08:41.583Z,19.77
2023-05-09T09:12:47.090Z,19.74
2023-05-09T09:16:53.595Z,19.91
2023-05-09T09:20:58.897Z,20.05
2023-05-09T09:25:02.032Z,20.28
2023-05-09T09:29:06.710Z,20.45
2023-05-09T09:33:09.311Z,20.57
2023-05-09T09:37:22.957Z,20.62
2023-05-09T09:41:31.790Z,20.60
2023-05-09T09:45:36.348Z,20.73
2023-05-09T09:49:46.280Z,21.08
2023-05-09T09:53:48.903Z,21.29
2023-05-09T09:57:52.246Z,21.21
2023-05-09T10:02:01.577Z,21.35
2023-05-09T10:06:06.066Z,21.54
2023-05-09T10:10:09.089Z,21.66
2023-05-09T10:14:12.180Z,21.62
2023-05-09T10:18:19.743Z,21.72
2023-05-09T10:22:23.269Z,21.97
2023-05-09T10:26:29.018Z,22.26
2023-05-09T10:30:35.859Z,22.09
2023-05-09T10:34:43.312Z,22.10
2023-05-09T10:38:46.748Z,22.11
2023-05-09T10:42:49.758Z,22.39
2023-05-09T10:46:52.857Z,22.42
2023-05-09T10:50:57.538Z,22.75
2023-05-09T10:55:01.923Z,22.86
2023-05-09T10:59:04.482Z,22.99
2023-05-09T11:03:07.601Z,22.69
2023-05-09T11:07:26.230Z,22.91
2023-05-09T11:11:30.566Z,23.13
2023-05-09T11:15:33.084Z,23.01
2023-05-09T11:19:38.155Z,22.98
2023-05-09T11:23:42.109Z,23.32
2023-05-09T11:27:46.172Z,23.47
2023-05-09T11:32:07.155Z,23.62
2023-05-09T11:36:17.928Z,23.78
2023-05-09T11:40:23.113Z,23.79
2023-05-09T11:44:27.802Z,24.07
2023-05-09T11:48:30.502Z,23.79
2023-05-09T11:52:33.592Z,23.97
2023-05-09T11:56:39.749Z,24.05
2023-05-09T12:00:45.315Z,23.95
2023-05-09T12:04:47.944Z,24.14
2023-05-09T12:08:50.591Z,24.41
2023-05-09T12:12:55.480Z,24.79
2023-05-09T12:16:58.772Z,24.92
2023-05-09T12:21:02.073Z,24.76
2023-05-09T12:25:07.485Z,24.96
2023-05-09T12:29:12.260Z,24.69
2023-05-09T12:33:15.836Z,25.11
2023-05-09T12:37:19.994Z,25.60
2023-05-09T12:45:34.554Z,25.30
2023-05-09T12:49:37.953Z,25.05
2023-05-09T12:53:41.793Z,25.13
2023-05-09T12:57:44.397Z,25.39
2023-05-09T13:01:53.005Z,25.06
2023-05-09T13:05:56.968Z,25.23
2023-05-09T13:10:00.985Z,25.25
2023-05-09T13:14:04.120Z,25.63
2023-05-09T13:18:08.026Z,25.82
2023-05-09T13:22:12.234Z,25.60
2023-05-09T13:26:15.014Z,25.44
2023-05-09T13:30:18.669Z,25.44
2023-05-09T13:34:22.815Z,25.69
2023-05-09T13:38:25.550Z,25.54
2023-05-09T13:42:28.334Z,25.75
2023-05-09T13:46:30.924Z,25.65
2023-05-09T13:50:34.883Z,25.64
2023-05-09T13:54:37.618Z,25.94
2023-05-09T13:58:40.084Z,26.52
2023-05-09T14:02:42.647Z,26.65
2023-05-09T14:06:48.194Z,26.63
2023-05-09T14:10:51.096Z,27.03
2023-05-09T14:14:53.606Z,26.58
2023-05-09T14:18:56.143Z,26.28
2023-05-09T14:23:00.694Z,26.27
2023-05-09T14:27:03.717Z,26.14
2023-05-09T14:31:06.373Z,26.65
2023-05-09T14:35:09.457Z,26.72
2023-05-09T14:39:13.239Z,26.64
2023-05-09T14:43:16.245Z,26.97
2023-05-09T14:47:18.813Z,26.90
2023-05-09T14:51:21.756Z,27.07
2023-05-09T14:55:26.681Z,27.02
2023-05-09T14:59:29.477Z,27.07
2023-05-09T15:03:32.060Z,26.79
2023-05-09T15:07:35.263Z,26.51
2023-05-09T15:11:47.616Z,26.81
2023-05-09T15:15:51.512Z,26.77
2023-05-09T15:19:53.985Z,26.77
2023-05-09T15:23:57.343Z,26.74
2023-05-09T15:28:01.191Z,26.25
2023-05-09T15:32:03.757Z,26.32
2023-05-09T15:36:06.834Z,26.32
2023-05-09T15:40:10.331Z,26.53
2023-05-09T15:44:14.421Z,26.74
2023-05-09T15:48:17.381Z,26.31
2023-05-09T15:52:20.066Z,26.57
2023-05-09T15:56:22.644Z,27.10
2023-05-09T16:00:26.548Z,26.92
2023-05-09T16:04:29.029Z,26.95
2023-05-09T16:08:31.584Z,27.27
2023-05-09T16:12:34.124Z,27.11
2023-05-09T16:16:38.064Z,27.19
2023-05-09T16:20:41.971Z,27.23
2023-05-09T16:24:45.254Z,27.13
2023-05-09T16:28:47.772Z,26.83
2023-05-09T16:32:52.422Z,27.15
2023-05-09T16:36:54.968Z,27.43
2023-05-09T16:40:57.473Z,27.68
2023-05-09T16:45:00.007Z,27.09
2023-05-09T16:49:04.109Z,27.14
2023-05-09T16:53:06.620Z,27.14
2023-05-09T16:57:09.159Z,26.95
2023-05-09T17:01:12.402Z,26.49
2023-05-09T17:05:16.306Z,25.26
2023-05-09T17:09:18.918Z,24.78
2023-05-09T17:13:21.339Z,24.65
2023-05-09T17:17:23.939Z,24.19
2023-05-09T17:21:28.090Z,24.00
2023-05-09T17:25:30.623Z,24.06
2023-05-09T17:29:33.137Z,23.93
2023-05-09T17:33:35.841Z,23.60
2023-05-09T17:37:39.826Z,23.52
2023-05-09T17:41:42.363Z,22.99
2023-05-09T17:45:46.148Z,22.70
2023-05-09T17:49:48.689Z,22.45
2023-05-09T17:53:52.921Z,22.30
2023-05-09T17:57:55.675Z,21.93
2023-05-09T18:01:58.191Z,22.01
2023-05-09T18:06:01.729Z,21.79
2023-05-09T18:10:07.414Z,21.73
2023-05-09T18:14:09.981Z,21.62
2023-05-09T18:18:14.534Z,21.49
2023-05-09T18:22:19.200Z,21.15
2023-05-09T18:26:23.052Z,21.08
2023-05-09T18:30:25.618Z,20.87
2023-05-09T18:34:28.240Z,20.66
2023-05-09T18:38:34.555Z,20.46
2023-05-09T18:42:38.385Z,20.34
2023-05-09T18:46:41.347Z,20.12
2023-05-09T18:50:43.973Z,19.95
2023-05-09T18:54:46.511Z,19.66
2023-05-09T18:58:50.596Z,19.47
2023-05-09T19:02:53.163Z,19.36
2023-05-09T19:06:55.893Z,19.08
2023-05-09T19:10:58.386Z,18.89
2023-05-09T19:15:02.549Z,18.72
2023-05-09T19:19:05.050Z,18.69
2023-05-09T19:23:07.585Z,18.56
2023-05-09T19:27:10.216Z,18.54
2023-05-09T19:31:14.586Z,18.30
2023-05-09T19:35:17.245Z,18.23
2023-05-09T19:39:19.763Z,18.10
2023-05-09T19:43:22.249Z,18.02
2023-05-09T19:47:26.120Z,17.89
2023-05-09T19:51:28.730Z,17.83
2023-05-09T19:55:31.415Z,17.72
2023-05-09T19:59:34.007Z,17.60
2023-05-09T20:03:38.520Z,17.71
2023-05-09T20:07:41.327Z,17.68
2023-05-09T20:11:43.810Z,17.72
2023-05-09T20:15:46.641Z,17.65
2023-05-09T20:19:50.720Z,17.83
2023-05-09T20:23:53.268Z,17.80
2023-05-09T20:27:55.783Z,17.82
2023-05-09T20:31:58.311Z,17.80
2023-05-09T20:36:04.471Z,17.72
2023-05-09T20:40:08.489Z,17.70
2023-05-09T20:44:13.226Z,17.69
2023-05-09T20:48:15.710Z,17.72
2023-05-09T20:52:19.559Z,17.66
2023-05-09T20:56:22.052Z,17.63
